createdAt,value
2022-08-07T00:01:12.501Z,55.99
2022-08-07T00:03:55.191Z,55.64
2022-08-07T00:06:29.450Z,56.47
2022-08-07T00:09:16.866Z,56.36
2022-08-07T00:11:54.252Z,56.58
2022-08-07T00:14:29.986Z,56.84
2022-08-07T00:16:58.852Z,56.77
2022-08-07T00:19:34.121Z,56.87
2022-08-07T00:22:30.796Z,56.76
2022-08-07T00:25:04.285Z,56.41
2022-08-07T00:27:35.790Z,56.80
2022-08-07T00:30:26.309Z,56.33
2022-08-07T00:32:56.478Z,56.76
2022-08-07T00:35:24.090Z,57.00
2022-08-07T00:37:51.771Z,57.15
2022-08-07T00:40:39.272Z,57.16
2022-08-07T00:43:09.639Z,57.25
2022-08-07T00:45:38.263Z,57.29
2022-08-07T00:48:10.072Z,57.04
2022-08-07T00:50:46.273Z,57.95
2022-08-07T00:53:20.145Z,57.44
2022-08-07T00:56:02.290Z,57.64
2022-08-07T00:58:31.569Z,57.55
2022-08-07T01:00:59.283Z,57.96
2022-08-07T01:03:56.150Z,58.23
2022-08-07T01:06:15.798Z,58.16
2022-08-07T01:08:53.339Z,57.83
2022-08-07T01:12:24.006Z,58.05
2022-08-07T01:14:09.780Z,57.94
2022-08-07T01:16:38.219Z,58.36
2022-08-07T01:19:10.830Z,58.45
2022-08-07T01:21:46.607Z,57.99
2022-08-07T01:24:18.684Z,58.23
2022-08-07T01:26:52.161Z,58.11
2022-08-07T01:29:20.298Z,58.53
2022-08-07T01:31:49.777Z,58.68
2022-08-07T01:34:18.917Z,58.34
2022-08-07T01:36:51.447Z,58.31
2022-08-07T01:39:25.505Z,59.06
2022-08-07T01:42:38.231Z,58.82
2022-08-07T01:44:55.660Z,58.49
2022-08-07T01:48:19.301Z,58.98
2022-08-07T01:50:11.510Z,59.27
2022-08-07T01:52:49.319Z,58.72
2022-08-07T01:55:22.522Z,59.18
2022-08-07T01:58:05.437Z,59.06
2022-08-07T02:00:34.974Z,59.25
2022-08-07T02:03:21.993Z,59.29
2022-08-07T02:06:01.166Z,59.13
2022-08-07T02:08:29.003Z,59.10
2022-08-07T02:10:58.764Z,59.56
2022-08-07T02:13:47.012Z,59.23
2022-08-07T02:16:14.234Z,59.00
2022-08-07T02:18:47.263Z,59.67
2022-08-07T02:21:15.991Z,59.81
2022-08-07T02:23:44.734Z,59.78
2022-08-07T02:26:32.716Z,59.08
2022-08-07T02:29:00.251Z,59.56
2022-08-07T02:31:28.271Z,59.73
2022-08-07T02:34:03.170Z,59.52
2022-08-07T02:36:32.795Z,59.72
2022-08-07T02:39:00.996Z,59.78
2022-08-07T02:41:33.397Z,59.76
2022-08-07T02:44:05.019Z,59.97
2022-08-07T02:46:32.863Z,59.63
2022-08-07T02:49:03.357Z,59.75
2022-08-07T02:51:42.443Z,60.20
2022-08-07T02:54:17.720Z,59.60
2022-08-07T02:56:45.965Z,59.72
2022-08-07T02:59:14.741Z,59.69
2022-08-07T03:01:42.529Z,59.72
2022-08-07T03:04:15.098Z,60.21
2022-08-07T03:06:44.863Z,60.02
2022-08-07T03:09:13.807Z,59.58
2022-08-07T03:11:51.667Z,60.15
2022-08-07T03:14:25.406Z,60.04
2022-08-07T03:16:53.504Z,60.40
2022-08-07T03:19:21.588Z,60.34
2022-08-07T03:21:50.914Z,60.43
2022-08-07T03:24:26.906Z,60.45
2022-08-07T03:26:59.098Z,60.29
2022-08-07T03:29:27.740Z,60.65
2022-08-07T03:31:55.565Z,60.66
2022-08-07T03:34:23.519Z,60.64
2022-08-07T03:36:55.119Z,60.63
2022-08-07T03:39:59.719Z,60.27
2022-08-07T03:42:12.977Z,61.19
2022-08-07T03:44:40.559Z,60.32
2022-08-07T03:47:14.243Z,61.09
2022-08-07T03:49:48.007Z,60.91
2022-08-07T03:52:22.942Z,60.89
2022-08-07T03:54:57.416Z,61.14
2022-08-07T03:58:08.707Z,60.88
2022-08-07T04:00:29.131Z,60.92
2022-08-07T04:03:04.430Z,61.54
2022-08-07T04:05:40.509Z,60.85
2022-08-07T04:08:10.148Z,60.76
2022-08-07T04:10:39.221Z,61.07
2022-08-07T04:13:15.085Z,60.59
2022-08-07T04:15:43.795Z,60.93
2022-08-07T04:18:56.177Z,60.93
2022-08-07T04:21:01.453Z,60.84
2022-08-07T04:23:43.370Z,61.29
2022-08-07T04:26:21.685Z,60.87
2022-08-07T04:28:49.749Z,60.55
2022-08-07T04:31:19.634Z,61.26
2022-08-07T04:33:55.062Z,61.24
2022-08-07T04:36:26.287Z,61.14
2022-08-07T04:38:54.047Z,61.32
2022-08-07T04:41:22.263Z,61.56
2022-08-07T04:44:12.976Z,60.93
2022-08-07T04:46:59.691Z,60.42
2022-08-07T04:49:26.002Z,60.84
2022-08-07T04:51:53.717Z,60.59
2022-08-07T04:54:22.621Z,60.34
2022-08-07T04:58:11.332Z,60.20
2022-08-07T05:00:12.025Z,60.04
2022-08-07T05:02:33.939Z,59.59
2022-08-07T05:05:01.813Z,59.33
2022-08-07T05:07:44.203Z,59.23
2022-08-07T05:10:16.803Z,59.04
2022-08-07T05:12:53.133Z,59.19
2022-08-07T05:15:24.069Z,59.02
2022-08-07T05:17:55.181Z,58.75
2022-08-07T05:20:25.692Z,58.56
2022-08-07T05:22:53.462Z,58.86
2022-08-07T05:25:25.892Z,57.87
2022-08-07T05:28:19.985Z,57.93
2022-08-07T05:30:50.759Z,57.99
2022-08-07T05:33:21.369Z,57.11
2022-08-07T05:35:49.288Z,57.46
2022-08-07T05:39:00.462Z,56.85
2022-08-07T05:41:12.377Z,57.38
2022-08-07T05:44:08.493Z,56.86
2022-08-07T05:46:31.057Z,56.88
2022-08-07T05:48:59.486Z,56.32
2022-08-07T05:51:31.622Z,56.36
2022-08-07T05:54:13.024Z,56.49
2022-08-07T05:56:51.290Z,55.91
2022-08-07T05:59:19.765Z,56.56
2022-08-07T06:01:48.747Z,55.92
2022-08-07T06:04:17.434Z,55.75
2022-08-07T06:06:46.160Z,55.68
2022-08-07T06:09:15.273Z,55.51
2022-08-07T06:11:43.839Z,55.05
2022-08-07T06:14:20.934Z,54.88
2022-08-07T06:16:50.725Z,54.39
2022-08-07T06:19:57.966Z,54.22
2022-08-07T06:22:22.792Z,53.93
2022-08-07T06:24:57.756Z,53.96
2022-08-07T06:27:44.058Z,53.91
2022-08-07T06:30:24.211Z,53.51
2022-08-07T06:33:01.502Z,53.33
2022-08-07T06:35:38.923Z,53.18
2022-08-07T06:38:19.306Z,53.06
2022-08-07T06:40:48.437Z,52.95
2022-08-07T06:43:21.638Z,53.21
2022-08-07T06:45:50.143Z,52.56
2022-08-07T06:48:25.070Z,52.81
2022-08-07T06:50:53.355Z,52.96
2022-08-07T06:55:27.766Z,52.66
2022-08-07T06:56:15.173Z,52.18
2022-08-07T07:00:10.529Z,52.66
2022-08-07T07:01:33.211Z,52.49
2022-08-07T07:04:28.318Z,52.04
2022-08-07T07:07:01.247Z,51.90
2022-08-07T07:09:31.322Z,51.81
2022-08-07T07:12:08.495Z,51.18
2022-08-07T07:14:44.383Z,51.19
2022-08-07T07:17:16.239Z,50.98
2022-08-07T07:19:56.959Z,51.04
2022-08-07T07:22:36.236Z,50.38
2022-08-07T07:26:31.064Z,50.38
2022-08-07T07:28:03.353Z,50.71
2022-08-07T07:30:38.734Z,50.02
2022-08-07T07:33:07.942Z,50.09
2022-08-07T07:35:50.677Z,49.74
2022-08-07T07:38:23.444Z,49.93
2022-08-07T07:40:51.607Z,49.85
2022-08-07T07:43:27.772Z,49.53
2022-08-07T07:46:37.488Z,48.98
2022-08-07T07:48:59.817Z,49.14
2022-08-07T07:51:27.799Z,48.62
2022-08-07T07:53:55.594Z,48.57
2022-08-07T07:56:30.617Z,48.91
2022-08-07T07:58:58.617Z,48.63
2022-08-07T08:02:05.146Z,48.13
2022-08-07T08:04:15.346Z,48.36
2022-08-07T08:06:48.097Z,47.97
2022-08-07T08:09:19.858Z,47.74
2022-08-07T08:12:02.138Z,47.96
2022-08-07T08:14:31.407Z,47.21
2022-08-07T08:17:56.181Z,47.27
2022-08-07T08:20:18.613Z,46.89
2022-08-07T08:22:56.302Z,46.79
2022-08-07T08:25:49.075Z,46.54
2022-08-07T08:28:23.945Z,46.72
2022-08-07T08:31:05.284Z,46.23
2022-08-07T08:33:34.442Z,46.46
2022-08-07T08:36:02.183Z,46.13
2022-08-07T08:38:34.271Z,45.45
2022-08-07T08:41:06.223Z,45.58
2022-08-07T08:43:42.339Z,45.38
2022-08-07T08:46:10.627Z,45.66
2022-08-07T08:48:38.805Z,45.18
2022-08-07T08:51:14.753Z,45.14
2022-08-07T08:53:54.131Z,44.27
2022-08-07T08:56:24.698Z,44.64
2022-08-07T08:58:54.443Z,43.93
2022-08-07T09:01:22.772Z,44.16
2022-08-07T09:03:57.558Z,43.62
2022-08-07T09:06:26.151Z,43.72
2022-08-07T09:08:58.031Z,43.75
2022-08-07T09:11:50.477Z,43.69
2022-08-07T09:14:13.797Z,42.72
2022-08-07T09:16:42.041Z,42.76
2022-08-07T09:19:51.241Z,42.59
2022-08-07T09:22:39.990Z,42.76
2022-08-07T09:25:00.612Z,42.93
2022-08-07T09:27:38.341Z,41.88
2022-08-07T09:30:27.971Z,41.89
2022-08-07T09:32:58.539Z,42.18
2022-08-07T09:36:04.973Z,41.77
2022-08-07T09:38:23.340Z,41.31
2022-08-07T09:40:51.561Z,41.10
2022-08-07T09:43:19.467Z,40.25
2022-08-07T09:47:42.628Z,40.17
2022-08-07T09:50:03.659Z,39.26
2022-08-07T09:52:15.852Z,38.52
2022-08-07T09:54:30.286Z,38.67
2022-08-07T09:56:58.080Z,37.82
2022-08-07T09:59:31.077Z,36.77
2022-08-07T10:02:12.036Z,36.52
2022-08-07T10:04:45.929Z,35.89
2022-08-07T10:07:24.582Z,35.58
2022-08-07T10:10:03.458Z,34.91
2022-08-07T10:12:31.244Z,34.69
2022-08-07T10:14:59.608Z,34.83
2022-08-07T10:17:33.721Z,33.97
2022-08-07T10:20:15.574Z,34.31
2022-08-07T10:22:50.811Z,33.53
2022-08-07T10:25:22.805Z,33.28
2022-08-07T10:27:51.427Z,33.45
2022-08-07T10:30:20.024Z,32.43
2022-08-07T10:32:52.863Z,33.04
2022-08-07T10:35:25.664Z,32.28
2022-08-07T10:38:09.896Z,32.03
2022-08-07T10:40:41.311Z,31.71
2022-08-07T10:43:09.658Z,31.35
2022-08-07T10:45:44.434Z,31.46
2022-08-07T10:48:16.284Z,30.99
2022-08-07T10:50:49.855Z,30.93
2022-08-07T10:53:21.563Z,30.88
2022-08-07T10:55:50.747Z,30.75
2022-08-07T10:58:32.030Z,30.31
2022-08-07T11:01:11.348Z,30.40
2022-08-07T11:03:52.652Z,29.11
2022-08-07T11:06:26.715Z,29.90
2022-08-07T11:08:54.712Z,29.68
2022-08-07T11:11:23.815Z,28.48
2022-08-07T11:14:44.699Z,28.13
2022-08-07T11:16:39.491Z,28.99
2022-08-07T11:19:08.708Z,29.14
2022-08-07T11:21:40.752Z,28.30
2022-08-07T11:24:10.644Z,27.99
2022-08-07T11:26:48.290Z,28.46
2022-08-07T11:29:43.539Z,28.06
2022-08-07T11:32:05.769Z,27.84
2022-08-07T11:34:34.760Z,28.10
2022-08-07T11:37:02.916Z,27.72
2022-08-07T11:39:59.240Z,27.74
2022-08-07T11:42:18.899Z,27.31
2022-08-07T11:44:52.391Z,26.69
2022-08-07T11:47:26.185Z,26.67
2022-08-07T11:50:32.301Z,26.71
2022-08-07T11:52:54.973Z,26.67
2022-08-07T11:56:18.457Z,26.13
2022-08-07T11:58:13.153Z,25.91
2022-08-07T12:00:48.879Z,26.28
2022-08-07T12:03:41.753Z,26.07
2022-08-07T12:06:38.955Z,26.29
2022-08-07T12:09:01.280Z,25.74
2022-08-07T12:11:32.519Z,25.76
2022-08-07T12:14:00.398Z,25.77
2022-08-07T12:16:30.034Z,25.30
2022-08-07T12:18:58.550Z,25.44
2022-08-07T12:22:36.615Z,25.73
2022-08-07T12:24:38.539Z,25.29
2022-08-07T12:27:04.107Z,25.02
2022-08-07T12:29:42.704Z,25.07
2022-08-07T12:32:13.105Z,24.91
2022-08-07T12:34:41.045Z,25.08
2022-08-07T12:37:16.882Z,25.00
2022-08-07T12:39:51.715Z,25.01
2022-08-07T12:42:27.286Z,25.50
2022-08-07T12:44:56.027Z,25.34
2022-08-07T12:47:27.063Z,25.93
2022-08-07T12:50:04.934Z,25.70
2022-08-07T12:52:34.265Z,25.52
2022-08-07T12:55:05.685Z,25.79
2022-08-07T12:57:59.466Z,25.87
2022-08-07T13:00:32.886Z,26.27
2022-08-07T13:03:07.018Z,26.50
2022-08-07T13:06:04.113Z,27.75
2022-08-07T13:08:23.069Z,27.84
2022-08-07T13:10:55.911Z,28.17
2022-08-07T13:13:47.959Z,29.11
2022-08-07T13:16:13.111Z,29.30
2022-08-07T13:18:44.500Z,28.94
2022-08-07T13:21:12.439Z,29.44
2022-08-07T13:24:01.797Z,29.02
2022-08-07T13:26:29.463Z,29.57
2022-08-07T13:28:58.417Z,29.70
2022-08-07T13:31:32.016Z,30.04
2022-08-07T13:34:30.190Z,29.99
2022-08-07T13:36:48.682Z,30.17
2022-08-07T13:39:49.178Z,30.19
2022-08-07T13:42:03.993Z,30.62
2022-08-07T13:44:36.790Z,30.33
2022-08-07T13:47:09.424Z,31.13
2022-08-07T13:50:32.956Z,31.26
2022-08-07T13:52:32.305Z,30.64
2022-08-07T13:55:04.131Z,29.82
2022-08-07T13:57:38.046Z,30.26
2022-08-07T14:00:07.966Z,29.19
2022-08-07T14:02:51.027Z,29.25
2022-08-07T14:05:22.079Z,29.23
2022-08-07T14:08:00.971Z,28.83
2022-08-07T14:10:29.435Z,29.39
2022-08-07T14:13:00.572Z,29.44
2022-08-07T14:15:31.959Z,29.52
2022-08-07T14:18:23.990Z,29.72
2022-08-07T14:20:54.748Z,29.45
2022-08-07T14:23:58.864Z,28.94
2022-08-07T14:26:10.291Z,29.26
2022-08-07T14:29:01.192Z,28.93
2022-08-07T14:31:43.060Z,28.65
2022-08-07T14:34:25.837Z,27.93
2022-08-07T14:36:56.839Z,27.61
2022-08-07T14:40:18.277Z,27.25
2022-08-07T14:42:18.609Z,27.55
2022-08-07T14:44:49.813Z,27.31
2022-08-07T14:47:19.608Z,27.13
2022-08-07T14:49:57.039Z,27.36
2022-08-07T14:52:28.904Z,27.03
2022-08-07T14:54:56.798Z,27.48
2022-08-07T15:00:20.876Z,26.75
2022-08-07T15:02:57.970Z,27.18
2022-08-07T15:05:25.653Z,26.41
2022-08-07T15:07:54.173Z,26.63
2022-08-07T15:10:26.267Z,26.44
2022-08-07T15:12:58.002Z,25.99
2022-08-07T15:15:25.949Z,25.12
2022-08-07T15:17:55.571Z,24.97
2022-08-07T15:20:32.530Z,24.18
2022-08-07T15:23:17.068Z,24.15
2022-08-07T15:25:48.501Z,23.77
2022-08-07T15:28:35.077Z,23.70
2022-08-07T15:33:51.836Z,24.64
2022-08-07T15:37:02.746Z,25.06
2022-08-07T15:44:42.986Z,24.43
2022-08-07T15:47:20.524Z,24.73
2022-08-07T15:50:04.422Z,24.67
2022-08-07T15:52:34.320Z,24.63
2022-08-07T15:55:08.947Z,24.24
2022-08-07T15:57:40.028Z,24.14
2022-08-07T16:00:31.011Z,24.20
2022-08-07T16:03:01.707Z,24.22
2022-08-07T16:05:31.382Z,23.69
2022-08-07T16:08:30.889Z,23.72
2022-08-07T16:10:48.612Z,23.17
2022-08-07T16:13:18.131Z,22.98
2022-08-07T16:16:06.892Z,23.38
2022-08-07T16:18:52.645Z,22.29
2022-08-07T16:22:01.835Z,22.46
2022-08-07T16:24:09.115Z,22.36
2022-08-07T16:26:59.414Z,22.96
2022-08-07T16:30:09.869Z,22.26
2022-08-07T16:32:33.119Z,22.48
2022-08-07T16:35:03.249Z,22.38
2022-08-07T16:38:06.926Z,23.08
2022-08-07T16:40:37.485Z,24.24
2022-08-07T16:43:25.088Z,26.04
2022-08-07T16:47:03.030Z,27.94
2022-08-07T16:50:26.872Z,29.33
2022-08-07T16:51:54.306Z,30.46
2022-08-07T16:54:36.155Z,31.09
2022-08-07T16:57:04.684Z,32.08
2022-08-07T16:59:46.556Z,32.19
2022-08-07T17:02:15.260Z,33.09
2022-08-07T17:05:02.863Z,33.15
2022-08-07T17:07:55.562Z,33.51
2022-08-07T17:10:32.230Z,33.32
2022-08-07T17:13:01.221Z,34.20
2022-08-07T17:15:44.684Z,34.01
2022-08-07T17:18:18.642Z,34.35
2022-08-07T17:20:46.668Z,34.36
2022-08-07T17:23:14.480Z,33.95
2022-08-07T17:25:51.348Z,34.79
2022-08-07T17:28:22.346Z,34.14
2022-08-07T17:30:59.057Z,35.10
2022-08-07T17:34:09.780Z,34.36
2022-08-07T17:36:20.834Z,34.53
2022-08-07T17:38:50.256Z,34.75
2022-08-07T17:42:04.811Z,34.65
2022-08-07T17:44:13.718Z,34.68
2022-08-07T17:46:44.089Z,35.20
2022-08-07T17:49:12.151Z,34.89
2022-08-07T17:52:00.657Z,34.91
2022-08-07T17:54:29.621Z,35.05
2022-08-07T17:57:18.402Z,35.54
2022-08-07T17:59:46.782Z,35.20
2022-08-07T18:02:23.258Z,35.43
2022-08-07T18:04:54.904Z,35.39
2022-08-07T18:07:28.435Z,35.76
2022-08-07T18:10:06.002Z,35.19
2022-08-07T18:12:34.831Z,36.09
2022-08-07T18:15:02.699Z,35.76
2022-08-07T18:18:45.173Z,36.02
2022-08-07T18:21:02.656Z,36.12
2022-08-07T18:23:42.601Z,35.98
2022-08-07T18:26:01.078Z,36.25
2022-08-07T18:28:34.025Z,36.44
2022-08-07T18:31:02.437Z,36.65
2022-08-07T18:33:30.144Z,36.28
2022-08-07T18:35:57.900Z,36.58
2022-08-07T18:38:58.809Z,36.10
2022-08-07T18:41:16.724Z,36.16
2022-08-07T18:43:48.927Z,36.71
2022-08-07T18:46:26.027Z,36.46
2022-08-07T18:50:05.463Z,36.70
2022-08-07T18:52:38.774Z,36.78
2022-08-07T18:54:31.583Z,36.69
2022-08-07T18:57:29.300Z,36.87
2022-08-07T18:59:59.047Z,37.31
2022-08-07T19:02:36.577Z,37.36
2022-08-07T19:05:14.837Z,37.42
2022-08-07T19:07:51.986Z,37.10
2022-08-07T19:10:31.263Z,37.55
2022-08-07T19:13:11.769Z,37.57
2022-08-07T19:16:04.697Z,38.02
2022-08-07T19:18:34.619Z,37.57
2022-08-07T19:21:09.788Z,38.13
2022-08-07T19:23:59.340Z,38.65
2022-08-07T19:26:29.176Z,38.29
2022-08-07T19:31:05.816Z,38.53
2022-08-07T19:32:07.934Z,38.85
2022-08-07T19:34:38.747Z,38.89
2022-08-07T19:37:10.414Z,39.02
2022-08-07T19:39:56.657Z,38.70
2022-08-07T19:42:31.706Z,39.35
2022-08-07T19:45:09.477Z,38.96
2022-08-07T19:47:38.173Z,39.10
2022-08-07T19:50:41.562Z,39.22
2022-08-07T19:52:58.563Z,39.58
2022-08-07T19:55:57.296Z,39.46
2022-08-07T19:58:15.598Z,39.66
2022-08-07T20:00:53.990Z,39.93
2022-08-07T20:03:35.296Z,39.75
2022-08-07T20:06:04.529Z,40.13
2022-08-07T20:08:32.449Z,40.13
2022-08-07T20:11:02.131Z,40.18
2022-08-07T20:13:32.149Z,39.99
2022-08-07T20:16:00.043Z,40.38
2022-08-07T20:18:33.567Z,40.61
2022-08-07T20:21:02.540Z,40.72
2022-08-07T20:23:33.054Z,40.68
2022-08-07T20:26:11.147Z,40.93
2022-08-07T20:28:39.322Z,41.00
2022-08-07T20:31:06.985Z,41.08
2022-08-07T20:33:38.357Z,41.24
2022-08-07T20:36:06.445Z,41.02
2022-08-07T20:38:34.224Z,40.96
2022-08-07T20:41:03.777Z,41.88
2022-08-07T20:43:33.306Z,41.98
2022-08-07T20:46:25.873Z,41.78
2022-08-07T20:49:54.074Z,42.00
2022-08-07T20:51:40.697Z,42.35
2022-08-07T20:54:29.338Z,42.55
2022-08-07T20:56:58.106Z,42.76
2022-08-07T21:00:05.090Z,42.48
2022-08-07T21:02:38.237Z,43.09
2022-08-07T21:05:16.350Z,42.71
2022-08-07T21:07:49.567Z,42.92
2022-08-07T21:10:17.846Z,43.34
2022-08-07T21:12:52.949Z,43.48
2022-08-07T21:15:21.977Z,43.31
2022-08-07T21:18:20.267Z,43.78
2022-08-07T21:20:57.400Z,43.61
2022-08-07T21:23:27.574Z,43.66
2022-08-07T21:25:56.796Z,43.87
2022-08-07T21:28:48.516Z,43.74
2022-08-07T21:31:15.353Z,44.02
2022-08-07T21:33:43.069Z,44.11
2022-08-07T21:36:11.939Z,43.71
2022-08-07T21:38:44.377Z,44.20
2022-08-07T21:41:13.784Z,44.00
2022-08-07T21:43:55.653Z,44.56
2022-08-07T21:46:24.801Z,44.64
2022-08-07T21:48:59.852Z,44.79
2022-08-07T21:51:27.540Z,44.62
2022-08-07T21:53:55.270Z,44.63
2022-08-07T21:56:37.819Z,45.15
2022-08-07T21:59:08.266Z,45.09
2022-08-07T22:02:11.074Z,45.15
2022-08-07T22:04:23.688Z,45.18
2022-08-07T22:06:52.617Z,45.69
2022-08-07T22:09:25.892Z,45.56
2022-08-07T22:12:06.841Z,45.91
2022-08-07T22:14:36.493Z,45.87
2022-08-07T22:17:05.088Z,45.57
2022-08-07T22:19:33.608Z,45.94
2022-08-07T22:22:17.845Z,46.22
2022-08-07T22:24:49.467Z,46.16
2022-08-07T22:27:18.547Z,46.11
2022-08-07T22:29:48.319Z,46.75
2022-08-07T22:32:20.526Z,46.40
2022-08-07T22:34:52.871Z,46.71
2022-08-07T22:37:21.146Z,46.74
2022-08-07T22:39:52.924Z,46.69
2022-08-07T22:42:25.891Z,46.63
2022-08-07T22:44:58.852Z,46.42
2022-08-07T22:47:27.200Z,47.00
2022-08-07T22:49:55.516Z,46.89
2022-08-07T22:52:37.613Z,47.00
2022-08-07T22:55:17.314Z,46.88
2022-08-07T22:57:50.635Z,46.83
2022-08-07T23:00:18.282Z,47.29
2022-08-07T23:02:49.141Z,47.42
2022-08-07T23:06:15.507Z,47.58
2022-08-07T23:08:04.875Z,47.54
2022-08-07T23:10:42.547Z,47.90
2022-08-07T23:13:11.211Z,47.43
2022-08-07T23:16:06.215Z,47.80
2022-08-07T23:18:31.961Z,48.21
2022-08-07T23:20:58.898Z,48.32
2022-08-07T23:24:04.250Z,48.22
2022-08-07T23:26:14.231Z,48.44
2022-08-07T23:28:53.383Z,48.05
2022-08-07T23:32:49.105Z,48.24
2022-08-07T23:34:35.022Z,48.85
2022-08-07T23:37:20.129Z,48.75
2022-08-07T23:39:47.036Z,48.57
2022-08-07T23:42:24.613Z,48.85
2022-08-07T23:44:58.065Z,48.37
2022-08-07T23:47:25.812Z,48.77
2022-08-07T23:49:57.912Z,48.69
2022-08-07T23:53:01.317Z,48.57
2022-08-07T23:55:51.946Z,48.56
2022-08-07T23:58:01.952Z,48.60
